sensor_id;sensor_type;location;lat;lon;timestamp;P1;durP1;ratioP1;P2;durP2;ratioP2
54823;SDS011;40724;53.196;5.980;2023-07-22T00:00:00;3.72;;;1.90;;
54823;SDS011;40724;53.196;5.980;2023-07-22T00:02:26;5.22;;;1.95;;
54823;SDS011;40724;53.196;5.980;2023-07-22T00:04:52;4.72;;;2.22;;
54823;SDS011;40724;53.196;5.980;2023-07-22T00:07:18;4.05;;;1.83;;
54823;SDS011;40724;53.196;5.980;2023-07-22T00:09:44;2.60;;;1.48;;
54823;SDS011;40724;53.196;5.980;2023-07-22T00:12:10;3.00;;;1.55;;
54823;SDS011;40724;53.196;5.980;2023-07-22T00:14:40;5.85;;;1.83;;
54823;SDS011;40724;53.196;5.980;2023-07-22T00:17:06;3.17;;;1.83;;
54823;SDS011;40724;53.196;5.980;2023-07-22T00:19:33;4.30;;;1.50;;
54823;SDS011;40724;53.196;5.980;2023-07-22T00:21:59;2.28;;;1.20;;
54823;SDS011;40724;53.196;5.980;2023-07-22T00:24:25;3.47;;;1.30;;
54823;SDS011;40724;53.196;5.980;2023-07-22T00:26:51;2.80;;;1.27;;
54823;SDS011;40724;53.196;5.980;2023-07-22T00:29:18;3.10;;;1.40;;
54823;SDS011;40724;53.196;5.980;2023-07-22T00:31:44;3.10;;;1.50;;
54823;SDS011;40724;53.196;5.980;2023-07-22T00:34:10;3.10;;;1.80;;
54823;SDS011;40724;53.196;5.980;2023-07-22T00:36:36;3.33;;;1.83;;
54823;SDS011;40724;53.196;5.980;2023-07-22T00:39:03;1.45;;;1.25;;
54823;SDS011;40724;53.196;5.980;2023-07-22T00:41:30;3.90;;;1.65;;
54823;SDS011;40724;53.196;5.980;2023-07-22T00:43:56;2.78;;;1.70;;
54823;SDS011;40724;53.196;5.980;2023-07-22T00:46:22;2.20;;;1.27;;
54823;SDS011;40724;53.196;5.980;2023-07-22T00:48:49;2.55;;;1.65;;
54823;SDS011;40724;53.196;5.980;2023-07-22T00:51:16;2.85;;;1.30;;
54823;SDS011;40724;53.196;5.980;2023-07-22T00:53:42;3.85;;;1.42;;
54823;SDS011;40724;53.196;5.980;2023-07-22T00:56:08;5.80;;;1.70;;
54823;SDS011;40724;53.196;5.980;2023-07-22T00:58:34;2.95;;;1.23;;
54823;SDS011;40724;53.196;5.980;2023-07-22T01:01:00;2.10;;;1.08;;
54823;SDS011;40724;53.196;5.980;2023-07-22T01:03:26;3.28;;;1.80;;
54823;SDS011;40724;53.196;5.980;2023-07-22T01:05:53;2.75;;;1.15;;
54823;SDS011;40724;53.196;5.980;2023-07-22T01:08:20;3.65;;;1.55;;
54823;SDS011;40724;53.196;5.980;2023-07-22T01:10:46;2.88;;;1.20;;
54823;SDS011;40724;53.196;5.980;2023-07-22T01:13:13;3.05;;;1.25;;
54823;SDS011;40724;53.196;5.980;2023-07-22T01:15:39;2.03;;;1.15;;
54823;SDS011;40724;53.196;5.980;2023-07-22T01:18:06;1.98;;;1.00;;
54823;SDS011;40724;53.196;5.980;2023-07-22T01:20:32;2.55;;;1.30;;
54823;SDS011;40724;53.196;5.980;2023-07-22T01:22:58;2.33;;;1.27;;
54823;SDS011;40724;53.196;5.980;2023-07-22T01:25:25;2.83;;;1.33;;
54823;SDS011;40724;53.196;5.980;2023-07-22T01:27:51;2.05;;;1.08;;
54823;SDS011;40724;53.196;5.980;2023-07-22T01:30:18;1.90;;;1.00;;
54823;SDS011;40724;53.196;5.980;2023-07-22T01:32:44;3.92;;;1.52;;
54823;SDS011;40724;53.196;5.980;2023-07-22T01:35:10;2.60;;;1.77;;
54823;SDS011;40724;53.196;5.980;2023-07-22T01:37:37;3.55;;;1.50;;
54823;SDS011;40724;53.196;5.980;2023-07-22T01:40:03;1.65;;;1.10;;
54823;SDS011;40724;53.196;5.980;2023-07-22T01:42:41;2.33;;;1.30;;
54823;SDS011;40724;53.196;5.980;2023-07-22T01:45:08;4.18;;;1.55;;
54823;SDS011;40724;53.196;5.980;2023-07-22T01:47:35;3.53;;;1.52;;
54823;SDS011;40724;53.196;5.980;2023-07-22T01:50:02;2.67;;;1.40;;
54823;SDS011;40724;53.196;5.980;2023-07-22T01:52:28;4.03;;;1.60;;
54823;SDS011;40724;53.196;5.980;2023-07-22T01:54:54;3.85;;;1.58;;
54823;SDS011;40724;53.196;5.980;2023-07-22T01:57:21;1.92;;;1.23;;
54823;SDS011;40724;53.196;5.980;2023-07-22T01:59:47;4.63;;;1.17;;
54823;SDS011;40724;53.196;5.980;2023-07-22T02:02:13;2.25;;;1.60;;
54823;SDS011;40724;53.196;5.980;2023-07-22T02:04:39;2.22;;;1.60;;
54823;SDS011;40724;53.196;5.980;2023-07-22T02:07:05;1.42;;;1.00;;
54823;SDS011;40724;53.196;5.980;2023-07-22T02:09:32;3.42;;;1.60;;
54823;SDS011;40724;53.196;5.980;2023-07-22T02:11:58;5.07;;;1.17;;
54823;SDS011;40724;53.196;5.980;2023-07-22T02:14:24;3.78;;;1.60;;
54823;SDS011;40724;53.196;5.980;2023-07-22T02:16:50;4.45;;;1.95;;
54823;SDS011;40724;53.196;5.980;2023-07-22T02:19:16;3.20;;;1.70;;
54823;SDS011;40724;53.196;5.980;2023-07-22T02:21:42;4.60;;;1.40;;
54823;SDS011;40724;53.196;5.980;2023-07-22T02:24:09;2.40;;;1.48;;
54823;SDS011;40724;53.196;5.980;2023-07-22T02:26:35;3.70;;;1.35;;
54823;SDS011;40724;53.196;5.980;2023-07-22T02:29:02;3.83;;;1.55;;
54823;SDS011;40724;53.196;5.980;2023-07-22T02:31:28;4.07;;;2.03;;
54823;SDS011;40724;53.196;5.980;2023-07-22T02:33:54;3.28;;;1.50;;
54823;SDS011;40724;53.196;5.980;2023-07-22T02:36:20;4.15;;;1.30;;
54823;SDS011;40724;53.196;5.980;2023-07-22T02:38:46;5.05;;;1.60;;
54823;SDS011;40724;53.196;5.980;2023-07-22T02:41:12;3.58;;;1.70;;
54823;SDS011;40724;53.196;5.980;2023-07-22T02:43:38;2.67;;;1.42;;
54823;SDS011;40724;53.196;5.980;2023-07-22T02:46:05;3.22;;;1.75;;
54823;SDS011;40724;53.196;5.980;2023-07-22T02:48:33;2.03;;;1.05;;
54823;SDS011;40724;53.196;5.980;2023-07-22T02:51:08;4.18;;;1.75;;
54823;SDS011;40724;53.196;5.980;2023-07-22T02:53:38;2.40;;;1.20;;
54823;SDS011;40724;53.196;5.980;2023-07-22T02:56:06;2.85;;;1.42;;
54823;SDS011;40724;53.196;5.980;2023-07-22T02:58:33;3.20;;;1.52;;
54823;SDS011;40724;53.196;5.980;2023-07-22T03:00:59;4.68;;;1.50;;
54823;SDS011;40724;53.196;5.980;2023-07-22T03:03:25;2.10;;;1.60;;
54823;SDS011;40724;53.196;5.980;2023-07-22T03:05:52;1.70;;;1.13;;
54823;SDS011;40724;53.196;5.980;2023-07-22T03:08:18;2.40;;;1.75;;
54823;SDS011;40724;53.196;5.980;2023-07-22T03:10:44;3.28;;;1.40;;
54823;SDS011;40724;53.196;5.980;2023-07-22T03:13:16;2.28;;;1.48;;
54823;SDS011;40724;53.196;5.980;2023-07-22T03:15:43;3.08;;;1.70;;
54823;SDS011;40724;53.196;5.980;2023-07-22T03:18:09;1.90;;;1.17;;
54823;SDS011;40724;53.196;5.980;2023-07-22T03:20:38;3.72;;;1.40;;
54823;SDS011;40724;53.196;5.980;2023-07-22T03:23:05;1.92;;;1.33;;
54823;SDS011;40724;53.196;5.980;2023-07-22T03:25:31;1.90;;;1.50;;
54823;SDS011;40724;53.196;5.980;2023-07-22T03:28:04;4.70;;;1.98;;
54823;SDS011;40724;53.196;5.980;2023-07-22T03:30:31;6.47;;;1.73;;
54823;SDS011;40724;53.196;5.980;2023-07-22T03:32:57;2.90;;;1.77;;
54823;SDS011;40724;53.196;5.980;2023-07-22T03:35:23;4.00;;;1.90;;
54823;SDS011;40724;53.196;5.980;2023-07-22T03:37:49;4.30;;;1.67;;
54823;SDS011;40724;53.196;5.980;2023-07-22T03:40:15;5.10;;;1.50;;
54823;SDS011;40724;53.196;5.980;2023-07-22T03:42:52;3.35;;;1.30;;
54823;SDS011;40724;53.196;5.980;2023-07-22T03:45:19;2.78;;;1.73;;
54823;SDS011;40724;53.196;5.980;2023-07-22T03:47:50;3.33;;;1.73;;
54823;SDS011;40724;53.196;5.980;2023-07-22T03:50:17;3.45;;;2.28;;
54823;SDS011;40724;53.196;5.980;2023-07-22T03:52:43;3.67;;;1.85;;
54823;SDS011;40724;53.196;5.980;2023-07-22T03:55:09;4.93;;;1.60;;
54823;SDS011;40724;53.196;5.980;2023-07-22T03:57:35;5.88;;;2.25;;
54823;SDS011;40724;53.196;5.980;2023-07-22T04:00:02;4.35;;;2.53;;
54823;SDS011;40724;53.196;5.980;2023-07-22T04:02:29;3.50;;;2.13;;
54823;SDS011;40724;53.196;5.980;2023-07-22T04:04:55;4.38;;;2.10;;
54823;SDS011;40724;53.196;5.980;2023-07-22T04:07:21;2.95;;;1.77;;
54823;SDS011;40724;53.196;5.980;2023-07-22T04:09:48;4.40;;;2.25;;
54823;SDS011;40724;53.196;5.980;2023-07-22T04:12:14;6.25;;;2.70;;
54823;SDS011;40724;53.196;5.980;2023-07-22T04:14:40;3.25;;;1.80;;
54823;SDS011;40724;53.196;5.980;2023-07-22T04:17:06;4.15;;;2.10;;
54823;SDS011;40724;53.196;5.980;2023-07-22T04:19:32;4.68;;;2.10;;
54823;SDS011;40724;53.196;5.980;2023-07-22T04:21:58;4.13;;;2.03;;
54823;SDS011;40724;53.196;5.980;2023-07-22T04:24:25;5.13;;;2.28;;
54823;SDS011;40724;53.196;5.980;2023-07-22T04:26:51;3.08;;;1.90;;
54823;SDS011;40724;53.196;5.980;2023-07-22T04:29:17;3.50;;;2.35;;
54823;SDS011;40724;53.196;5.980;2023-07-22T04:31:42;7.70;;;3.38;;
54823;SDS011;40724;53.196;5.980;2023-07-22T04:34:08;4.57;;;2.40;;
54823;SDS011;40724;53.196;5.980;2023-07-22T04:36:36;5.38;;;2.85;;
54823;SDS011;40724;53.196;5.980;2023-07-22T04:39:02;7.38;;;2.90;;
54823;SDS011;40724;53.196;5.980;2023-07-22T04:41:30;4.78;;;3.10;;
54823;SDS011;40724;53.196;5.980;2023-07-22T04:43:57;4.88;;;2.92;;
54823;SDS011;40724;53.196;5.980;2023-07-22T04:46:25;4.95;;;3.50;;
54823;SDS011;40724;53.196;5.980;2023-07-22T04:48:55;4.45;;;2.35;;
54823;SDS011;40724;53.196;5.980;2023-07-22T04:51:21;4.13;;;3.03;;
54823;SDS011;40724;53.196;5.980;2023-07-22T04:53:47;5.05;;;3.05;;
54823;SDS011;40724;53.196;5.980;2023-07-22T04:56:13;6.82;;;3.35;;
54823;SDS011;40724;53.196;5.980;2023-07-22T04:58:38;4.78;;;3.15;;
54823;SDS011;40724;53.196;5.980;2023-07-22T05:01:04;6.03;;;3.65;;
54823;SDS011;40724;53.196;5.980;2023-07-22T05:03:30;4.93;;;3.05;;
54823;SDS011;40724;53.196;5.980;2023-07-22T05:05:56;5.65;;;3.05;;
54823;SDS011;40724;53.196;5.980;2023-07-22T05:08:23;5.53;;;3.13;;
54823;SDS011;40724;53.196;5.980;2023-07-22T05:10:49;6.07;;;3.22;;
54823;SDS011;40724;53.196;5.980;2023-07-22T05:13:14;8.25;;;3.88;;
54823;SDS011;40724;53.196;5.980;2023-07-22T05:15:41;6.07;;;3.53;;
54823;SDS011;40724;53.196;5.980;2023-07-22T05:18:07;7.80;;;3.22;;
54823;SDS011;40724;53.196;5.980;2023-07-22T05:20:33;8.32;;;4.05;;
54823;SDS011;40724;53.196;5.980;2023-07-22T05:22:59;6.57;;;4.22;;
54823;SDS011;40724;53.196;5.980;2023-07-22T05:25:24;8.27;;;4.68;;
54823;SDS011;40724;53.196;5.980;2023-07-22T05:27:50;6.32;;;4.10;;
54823;SDS011;40724;53.196;5.980;2023-07-22T05:30:16;6.90;;;4.35;;
54823;SDS011;40724;53.196;5.980;2023-07-22T05:32:42;7.10;;;4.57;;
54823;SDS011;40724;53.196;5.980;2023-07-22T05:35:07;6.15;;;3.95;;
54823;SDS011;40724;53.196;5.980;2023-07-22T05:37:34;8.05;;;4.50;;
54823;SDS011;40724;53.196;5.980;2023-07-22T05:40:00;7.22;;;3.83;;
54823;SDS011;40724;53.196;5.980;2023-07-22T05:42:26;7.30;;;4.55;;
54823;SDS011;40724;53.196;5.980;2023-07-22T05:44:57;8.30;;;4.13;;
54823;SDS011;40724;53.196;5.980;2023-07-22T05:47:23;7.63;;;4.07;;
54823;SDS011;40724;53.196;5.980;2023-07-22T05:49:50;8.98;;;4.45;;
54823;SDS011;40724;53.196;5.980;2023-07-22T05:52:16;9.38;;;4.50;;
54823;SDS011;40724;53.196;5.980;2023-07-22T05:54:43;6.10;;;4.18;;
54823;SDS011;40724;53.196;5.980;2023-07-22T05:57:09;6.95;;;4.78;;
54823;SDS011;40724;53.196;5.980;2023-07-22T05:59:35;5.68;;;4.55;;
54823;SDS011;40724;53.196;5.980;2023-07-22T06:02:03;7.20;;;4.28;;
54823;SDS011;40724;53.196;5.980;2023-07-22T06:04:29;5.90;;;4.13;;
54823;SDS011;40724;53.196;5.980;2023-07-22T06:06:55;10.98;;;5.05;;
54823;SDS011;40724;53.196;5.980;2023-07-22T06:09:21;6.18;;;4.95;;
54823;SDS011;40724;53.196;5.980;2023-07-22T06:11:47;11.43;;;5.88;;
54823;SDS011;40724;53.196;5.980;2023-07-22T06:14:13;9.50;;;4.97;;
54823;SDS011;40724;53.196;5.980;2023-07-22T06:16:39;10.57;;;6.35;;
54823;SDS011;40724;53.196;5.980;2023-07-22T06:19:05;8.45;;;4.90;;
54823;SDS011;40724;53.196;5.980;2023-07-22T06:21:31;7.25;;;5.20;;
54823;SDS011;40724;53.196;5.980;2023-07-22T06:23:57;10.52;;;5.75;;
54823;SDS011;40724;53.196;5.980;2023-07-22T06:26:23;8.60;;;5.15;;
54823;SDS011;40724;53.196;5.980;2023-07-22T06:28:49;8.90;;;6.15;;
54823;SDS011;40724;53.196;5.980;2023-07-22T06:31:15;6.97;;;5.45;;
54823;SDS011;40724;53.196;5.980;2023-07-22T06:33:43;8.45;;;6.10;;
54823;SDS011;40724;53.196;5.980;2023-07-22T06:36:09;10.23;;;5.80;;
54823;SDS011;40724;53.196;5.980;2023-07-22T06:38:35;10.55;;;6.72;;
54823;SDS011;40724;53.196;5.980;2023-07-22T06:41:01;7.38;;;5.80;;
54823;SDS011;40724;53.196;5.980;2023-07-22T06:43:28;9.98;;;6.97;;
54823;SDS011;40724;53.196;5.980;2023-07-22T06:45:54;10.48;;;6.40;;
54823;SDS011;40724;53.196;5.980;2023-07-22T06:48:20;8.93;;;5.68;;
54823;SDS011;40724;53.196;5.980;2023-07-22T06:50:47;10.55;;;6.82;;
54823;SDS011;40724;53.196;5.980;2023-07-22T06:53:13;8.60;;;5.60;;
54823;SDS011;40724;53.196;5.980;2023-07-22T06:55:40;12.15;;;6.63;;
54823;SDS011;40724;53.196;5.980;2023-07-22T06:58:06;12.82;;;6.72;;
54823;SDS011;40724;53.196;5.980;2023-07-22T07:00:32;10.77;;;6.53;;
54823;SDS011;40724;53.196;5.980;2023-07-22T07:02:58;13.90;;;7.30;;
54823;SDS011;40724;53.196;5.980;2023-07-22T07:05:24;9.85;;;6.00;;
54823;SDS011;40724;53.196;5.980;2023-07-22T07:07:50;10.02;;;6.53;;
54823;SDS011;40724;53.196;5.980;2023-07-22T07:10:16;11.70;;;7.30;;
54823;SDS011;40724;53.196;5.980;2023-07-22T07:12:42;10.25;;;6.53;;
54823;SDS011;40724;53.196;5.980;2023-07-22T07:15:08;11.57;;;7.75;;
54823;SDS011;40724;53.196;5.980;2023-07-22T07:17:35;10.80;;;7.20;;
54823;SDS011;40724;53.196;5.980;2023-07-22T07:20:01;11.43;;;6.93;;
54823;SDS011;40724;53.196;5.980;2023-07-22T07:22:27;12.38;;;6.72;;
54823;SDS011;40724;53.196;5.980;2023-07-22T07:24:53;12.63;;;7.82;;
54823;SDS011;40724;53.196;5.980;2023-07-22T07:27:19;11.38;;;7.18;;
54823;SDS011;40724;53.196;5.980;2023-07-22T07:29:45;12.13;;;6.93;;
54823;SDS011;40724;53.196;5.980;2023-07-22T07:32:12;11.40;;;6.55;;
54823;SDS011;40724;53.196;5.980;2023-07-22T07:34:38;10.50;;;7.45;;
54823;SDS011;40724;53.196;5.980;2023-07-22T07:37:04;9.93;;;6.68;;
54823;SDS011;40724;53.196;5.980;2023-07-22T07:39:30;9.35;;;5.68;;
54823;SDS011;40724;53.196;5.980;2023-07-22T07:41:56;9.82;;;6.57;;
54823;SDS011;40724;53.196;5.980;2023-07-22T07:44:22;11.10;;;6.47;;
54823;SDS011;40724;53.196;5.980;2023-07-22T07:46:48;8.25;;;5.75;;
54823;SDS011;40724;53.196;5.980;2023-07-22T07:49:14;7.25;;;5.80;;
54823;SDS011;40724;53.196;5.980;2023-07-22T07:51:40;9.52;;;6.38;;
54823;SDS011;40724;53.196;5.980;2023-07-22T07:54:07;12.73;;;6.32;;
54823;SDS011;40724;53.196;5.980;2023-07-22T07:56:34;13.35;;;6.80;;
54823;SDS011;40724;53.196;5.980;2023-07-22T07:59:00;8.07;;;5.57;;
54823;SDS011;40724;53.196;5.980;2023-07-22T08:01:27;13.23;;;6.72;;
54823;SDS011;40724;53.196;5.980;2023-07-22T08:03:53;11.38;;;5.80;;
54823;SDS011;40724;53.196;5.980;2023-07-22T08:06:20;9.93;;;6.00;;
54823;SDS011;40724;53.196;5.980;2023-07-22T08:08:46;9.13;;;6.00;;
54823;SDS011;40724;53.196;5.980;2023-07-22T08:11:13;13.27;;;6.70;;
54823;SDS011;40724;53.196;5.980;2023-07-22T08:13:39;9.90;;;6.50;;
54823;SDS011;40724;53.196;5.980;2023-07-22T08:16:07;10.48;;;5.78;;
54823;SDS011;40724;53.196;5.980;2023-07-22T08:18:33;7.93;;;5.22;;
54823;SDS011;40724;53.196;5.980;2023-07-22T08:21:00;8.05;;;5.40;;
54823;SDS011;40724;53.196;5.980;2023-07-22T08:23:27;7.20;;;5.45;;
54823;SDS011;40724;53.196;5.980;2023-07-22T08:25:53;8.45;;;5.05;;
54823;SDS011;40724;53.196;5.980;2023-07-22T08:28:19;10.20;;;4.93;;
54823;SDS011;40724;53.196;5.980;2023-07-22T08:30:47;6.55;;;4.30;;
54823;SDS011;40724;53.196;5.980;2023-07-22T08:33:14;7.53;;;4.55;;
54823;SDS011;40724;53.196;5.980;2023-07-22T08:35:41;6.82;;;4.38;;
54823;SDS011;40724;53.196;5.980;2023-07-22T08:38:07;6.75;;;4.25;;
54823;SDS011;40724;53.196;5.980;2023-07-22T08:40:37;5.90;;;3.47;;
54823;SDS011;40724;53.196;5.980;2023-07-22T08:43:04;7.85;;;4.00;;
54823;SDS011;40724;53.196;5.980;2023-07-22T08:45:31;9.73;;;3.90;;
54823;SDS011;40724;53.196;5.980;2023-07-22T08:47:59;6.97;;;4.90;;
54823;SDS011;40724;53.196;5.980;2023-07-22T08:50:29;6.82;;;4.25;;
54823;SDS011;40724;53.196;5.980;2023-07-22T08:52:56;9.23;;;4.88;;
54823;SDS011;40724;53.196;5.980;2023-07-22T08:55:23;8.85;;;5.40;;
54823;SDS011;40724;53.196;5.980;2023-07-22T08:57:50;6.53;;;4.32;;
54823;SDS011;40724;53.196;5.980;2023-07-22T09:00:16;11.73;;;5.75;;
54823;SDS011;40724;53.196;5.980;2023-07-22T09:02:43;5.72;;;4.15;;
54823;SDS011;40724;53.196;5.980;2023-07-22T09:05:10;6.95;;;4.75;;
54823;SDS011;40724;53.196;5.980;2023-07-22T09:07:37;11.27;;;7.60;;
54823;SDS011;40724;53.196;5.980;2023-07-22T09:10:04;11.30;;;7.15;;
54823;SDS011;40724;53.196;5.980;2023-07-22T09:12:30;11.07;;;8.30;;
54823;SDS011;40724;53.196;5.980;2023-07-22T09:14:57;14.27;;;9.07;;
54823;SDS011;40724;53.196;5.980;2023-07-22T09:17:24;14.00;;;7.60;;
54823;SDS011;40724;53.196;5.980;2023-07-22T09:19:53;12.07;;;8.70;;
54823;SDS011;40724;53.196;5.980;2023-07-22T09:22:24;13.68;;;8.57;;
54823;SDS011;40724;53.196;5.980;2023-07-22T09:24:51;14.38;;;9.68;;
54823;SDS011;40724;53.196;5.980;2023-07-22T09:27:32;14.50;;;8.00;;
54823;SDS011;40724;53.196;5.980;2023-07-22T09:29:58;11.50;;;8.30;;
54823;SDS011;40724;53.196;5.980;2023-07-22T09:32:36;10.88;;;8.18;;
54823;SDS011;40724;53.196;5.980;2023-07-22T09:35:02;11.45;;;7.38;;
54823;SDS011;40724;53.196;5.980;2023-07-22T09:37:36;14.15;;;7.85;;
54823;SDS011;40724;53.196;5.980;2023-07-22T09:40:24;10.50;;;7.45;;
54823;SDS011;40724;53.196;5.980;2023-07-22T09:42:50;9.95;;;8.10;;
54823;SDS011;40724;53.196;5.980;2023-07-22T09:45:19;12.73;;;7.40;;
54823;SDS011;40724;53.196;5.980;2023-07-22T09:47:48;11.93;;;7.75;;
54823;SDS011;40724;53.196;5.980;2023-07-22T09:50:22;9.82;;;6.82;;
54823;SDS011;40724;53.196;5.980;2023-07-22T09:52:49;11.43;;;7.32;;
54823;SDS011;40724;53.196;5.980;2023-07-22T09:55:20;8.45;;;6.32;;
54823;SDS011;40724;53.196;5.980;2023-07-22T09:57:52;10.13;;;6.75;;
54823;SDS011;40724;53.196;5.980;2023-07-22T10:00:19;10.73;;;7.28;;
54823;SDS011;40724;53.196;5.980;2023-07-22T10:02:48;9.80;;;6.88;;
54823;SDS011;40724;53.196;5.980;2023-07-22T10:05:18;11.07;;;5.57;;
54823;SDS011;40724;53.196;5.980;2023-07-22T10:07:46;7.75;;;4.95;;
54823;SDS011;40724;53.196;5.980;2023-07-22T10:10:18;8.85;;;5.38;;
54823;SDS011;40724;53.196;5.980;2023-07-22T10:12:46;7.15;;;4.95;;
54823;SDS011;40724;53.196;5.980;2023-07-22T10:15:13;6.78;;;4.50;;
54823;SDS011;40724;53.196;5.980;2023-07-22T10:17:41;5.63;;;4.00;;
54823;SDS011;40724;53.196;5.980;2023-07-22T10:20:08;7.97;;;4.65;;
54823;SDS011;40724;53.196;5.980;2023-07-22T10:22:43;5.18;;;3.38;;
54823;SDS011;40724;53.196;5.980;2023-07-22T10:25:10;7.05;;;4.00;;
54823;SDS011;40724;53.196;5.980;2023-07-22T10:27:36;4.53;;;3.70;;
54823;SDS011;40724;53.196;5.980;2023-07-22T10:30:05;9.82;;;3.53;;
54823;SDS011;40724;53.196;5.980;2023-07-22T10:32:35;4.80;;;3.25;;
54823;SDS011;40724;53.196;5.980;2023-07-22T10:35:01;5.97;;;3.97;;
54823;SDS011;40724;53.196;5.980;2023-07-22T10:37:32;6.25;;;3.72;;
54823;SDS011;40724;53.196;5.980;2023-07-22T10:40:17;5.35;;;4.40;;
54823;SDS011;40724;53.196;5.980;2023-07-22T10:47:45;4.93;;;2.95;;
54823;SDS011;40724;53.196;5.980;2023-07-22T10:50:26;4.85;;;3.17;;
54823;SDS011;40724;53.196;5.980;2023-07-22T10:53:03;4.68;;;2.90;;
54823;SDS011;40724;53.196;5.980;2023-07-22T10:55:30;4.82;;;3.63;;
54823;SDS011;40724;53.196;5.980;2023-07-22T10:57:58;5.90;;;3.45;;
54823;SDS011;40724;53.196;5.980;2023-07-22T11:00:29;5.28;;;3.60;;
54823;SDS011;40724;53.196;5.980;2023-07-22T11:03:08;5.75;;;3.00;;
54823;SDS011;40724;53.196;5.980;2023-07-22T11:05:48;6.00;;;3.78;;
54823;SDS011;40724;53.196;5.980;2023-07-22T11:08:15;6.15;;;3.25;;
54823;SDS011;40724;53.196;5.980;2023-07-22T11:10:54;4.68;;;3.28;;
54823;SDS011;40724;53.196;5.980;2023-07-22T11:13:27;5.43;;;3.75;;
54823;SDS011;40724;53.196;5.980;2023-07-22T11:15:57;5.85;;;3.75;;
54823;SDS011;40724;53.196;5.980;2023-07-22T11:18:35;7.30;;;3.50;;
54823;SDS011;40724;53.196;5.980;2023-07-22T11:21:01;5.20;;;3.03;;
54823;SDS011;40724;53.196;5.980;2023-07-22T11:23:28;4.88;;;3.03;;
54823;SDS011;40724;53.196;5.980;2023-07-22T11:25:54;6.20;;;3.72;;
54823;SDS011;40724;53.196;5.980;2023-07-22T11:28:20;5.00;;;3.30;;
54823;SDS011;40724;53.196;5.980;2023-07-22T11:30:47;5.25;;;4.07;;
54823;SDS011;40724;53.196;5.980;2023-07-22T11:33:13;5.13;;;3.25;;
54823;SDS011;40724;53.196;5.980;2023-07-22T11:35:42;4.88;;;3.08;;
54823;SDS011;40724;53.196;5.980;2023-07-22T11:38:08;5.95;;;3.75;;
54823;SDS011;40724;53.196;5.980;2023-07-22T11:40:37;6.35;;;3.97;;
54823;SDS011;40724;53.196;5.980;2023-07-22T11:43:03;6.82;;;3.30;;
54823;SDS011;40724;53.196;5.980;2023-07-22T11:45:31;6.35;;;3.78;;
54823;SDS011;40724;53.196;5.980;2023-07-22T11:47:57;5.53;;;4.10;;
54823;SDS011;40724;53.196;5.980;2023-07-22T11:50:33;5.95;;;3.63;;
54823;SDS011;40724;53.196;5.980;2023-07-22T11:52:59;4.45;;;3.20;;
54823;SDS011;40724;53.196;5.980;2023-07-22T11:55:25;5.22;;;2.60;;
54823;SDS011;40724;53.196;5.980;2023-07-22T11:57:52;4.68;;;2.72;;
54823;SDS011;40724;53.196;5.980;2023-07-22T12:00:18;5.35;;;3.05;;
54823;SDS011;40724;53.196;5.980;2023-07-22T12:02:44;3.60;;;2.72;;
54823;SDS011;40724;53.196;5.980;2023-07-22T12:05:10;3.78;;;2.47;;
54823;SDS011;40724;53.196;5.980;2023-07-22T12:07:37;2.75;;;2.15;;
54823;SDS011;40724;53.196;5.980;2023-07-22T12:10:04;5.15;;;2.75;;
54823;SDS011;40724;53.196;5.980;2023-07-22T12:12:35;3.00;;;1.90;;
54823;SDS011;40724;53.196;5.980;2023-07-22T12:17:43;5.22;;;2.30;;
54823;SDS011;40724;53.196;5.980;2023-07-22T12:20:09;3.97;;;2.10;;
54823;SDS011;40724;53.196;5.980;2023-07-22T12:22:35;5.28;;;2.50;;
54823;SDS011;40724;53.196;5.980;2023-07-22T12:25:01;4.35;;;2.90;;
54823;SDS011;40724;53.196;5.980;2023-07-22T12:27:28;2.83;;;2.45;;
54823;SDS011;40724;53.196;5.980;2023-07-22T12:29:54;3.50;;;2.33;;
54823;SDS011;40724;53.196;5.980;2023-07-22T12:32:20;3.75;;;2.40;;
54823;SDS011;40724;53.196;5.980;2023-07-22T12:34:46;5.43;;;2.35;;
54823;SDS011;40724;53.196;5.980;2023-07-22T12:37:12;3.35;;;2.47;;
54823;SDS011;40724;53.196;5.980;2023-07-22T12:39:38;4.82;;;2.50;;
54823;SDS011;40724;53.196;5.980;2023-07-22T12:42:04;4.25;;;2.65;;
54823;SDS011;40724;53.196;5.980;2023-07-22T12:44:31;5.32;;;2.83;;
54823;SDS011;40724;53.196;5.980;2023-07-22T12:46:57;3.63;;;2.30;;
54823;SDS011;40724;53.196;5.980;2023-07-22T12:49:23;4.65;;;3.28;;
54823;SDS011;40724;53.196;5.980;2023-07-22T12:51:49;6.78;;;3.90;;
54823;SDS011;40724;53.196;5.980;2023-07-22T12:54:15;5.70;;;3.75;;
54823;SDS011;40724;53.196;5.980;2023-07-22T12:56:41;6.65;;;3.97;;
54823;SDS011;40724;53.196;5.980;2023-07-22T12:59:08;6.03;;;3.63;;
54823;SDS011;40724;53.196;5.980;2023-07-22T13:01:35;6.28;;;4.25;;
54823;SDS011;40724;53.196;5.980;2023-07-22T13:04:04;7.85;;;4.05;;
54823;SDS011;40724;53.196;5.980;2023-07-22T13:06:30;5.30;;;3.10;;
54823;SDS011;40724;53.196;5.980;2023-07-22T13:08:57;4.82;;;3.88;;
54823;SDS011;40724;53.196;5.980;2023-07-22T13:11:23;4.32;;;3.20;;
54823;SDS011;40724;53.196;5.980;2023-07-22T13:13:49;6.72;;;3.22;;
54823;SDS011;40724;53.196;5.980;2023-07-22T13:16:15;5.90;;;2.88;;
54823;SDS011;40724;53.196;5.980;2023-07-22T13:18:41;4.45;;;3.17;;
54823;SDS011;40724;53.196;5.980;2023-07-22T13:21:07;4.78;;;2.85;;
54823;SDS011;40724;53.196;5.980;2023-07-22T13:23:33;3.75;;;2.47;;
54823;SDS011;40724;53.196;5.980;2023-07-22T13:26:00;3.83;;;2.97;;
54823;SDS011;40724;53.196;5.980;2023-07-22T13:28:26;4.38;;;2.80;;
54823;SDS011;40724;53.196;5.980;2023-07-22T13:30:52;4.60;;;2.85;;
54823;SDS011;40724;53.196;5.980;2023-07-22T13:33:18;4.47;;;2.38;;
54823;SDS011;40724;53.196;5.980;2023-07-22T13:35:44;4.95;;;2.95;;
54823;SDS011;40724;53.196;5.980;2023-07-22T13:38:10;5.65;;;2.60;;
54823;SDS011;40724;53.196;5.980;2023-07-22T13:40:37;3.80;;;2.55;;
54823;SDS011;40724;53.196;5.980;2023-07-22T13:43:03;4.22;;;3.10;;
54823;SDS011;40724;53.196;5.980;2023-07-22T13:45:32;4.10;;;2.75;;
54823;SDS011;40724;53.196;5.980;2023-07-22T13:47:58;6.30;;;2.35;;
54823;SDS011;40724;53.196;5.980;2023-07-22T13:50:24;4.97;;;2.80;;
54823;SDS011;40724;53.196;5.980;2023-07-22T13:52:50;4.63;;;2.45;;
54823;SDS011;40724;53.196;5.980;2023-07-22T13:55:16;3.10;;;2.10;;
54823;SDS011;40724;53.196;5.980;2023-07-22T13:57:42;4.95;;;3.08;;
54823;SDS011;40724;53.196;5.980;2023-07-22T14:00:08;6.47;;;3.45;;
54823;SDS011;40724;53.196;5.980;2023-07-22T14:02:37;7.68;;;3.53;;
54823;SDS011;40724;53.196;5.980;2023-07-22T14:05:03;4.40;;;3.05;;
54823;SDS011;40724;53.196;5.980;2023-07-22T14:07:30;9.30;;;2.97;;
54823;SDS011;40724;53.196;5.980;2023-07-22T14:09:56;5.85;;;2.88;;
54823;SDS011;40724;53.196;5.980;2023-07-22T14:12:22;6.03;;;3.22;;
54823;SDS011;40724;53.196;5.980;2023-07-22T14:14:48;6.38;;;3.22;;
54823;SDS011;40724;53.196;5.980;2023-07-22T14:17:14;6.03;;;3.63;;
54823;SDS011;40724;53.196;5.980;2023-07-22T14:19:40;8.65;;;3.67;;
54823;SDS011;40724;53.196;5.980;2023-07-22T14:22:07;8.32;;;3.70;;
54823;SDS011;40724;53.196;5.980;2023-07-22T14:24:33;5.97;;;3.80;;
54823;SDS011;40724;53.196;5.980;2023-07-22T14:27:00;6.63;;;3.60;;
54823;SDS011;40724;53.196;5.980;2023-07-22T14:29:26;6.78;;;4.18;;
54823;SDS011;40724;53.196;5.980;2023-07-22T14:31:52;6.10;;;3.65;;
54823;SDS011;40724;53.196;5.980;2023-07-22T14:34:18;6.82;;;3.83;;
54823;SDS011;40724;53.196;5.980;2023-07-22T14:36:44;4.90;;;3.22;;
54823;SDS011;40724;53.196;5.980;2023-07-22T14:39:10;5.45;;;4.20;;
54823;SDS011;40724;53.196;5.980;2023-07-22T14:41:36;5.40;;;3.72;;
54823;SDS011;40724;53.196;5.980;2023-07-22T14:44:04;5.85;;;3.47;;
54823;SDS011;40724;53.196;5.980;2023-07-22T14:46:30;4.75;;;3.42;;
54823;SDS011;40724;53.196;5.980;2023-07-22T14:48:56;5.30;;;3.65;;
54823;SDS011;40724;53.196;5.980;2023-07-22T14:51:22;6.10;;;3.72;;